sensor_id;sensor_type;location;lat;lon;timestamp;P1;durP1;ratioP1;P2;durP2;ratioP2
73239;SDS011;61452;40.054;4.110;2022-08-19T00:04:37;12.63;;;3.00;;
73239;SDS011;61452;40.054;4.110;2022-08-19T00:09:39;24.77;;;4.30;;
73239;SDS011;61452;40.054;4.110;2022-08-19T00:14:42;17.30;;;3.55;;
73239;SDS011;61452;40.054;4.110;2022-08-19T00:19:44;13.20;;;2.60;;
73239;SDS011;61452;40.054;4.110;2022-08-19T00:24:45;15.02;;;2.70;;
73239;SDS011;61452;40.054;4.110;2022-08-19T00:29:51;20.10;;;4.93;;
73239;SDS011;61452;40.054;4.110;2022-08-19T00:34:53;17.77;;;2.88;;
73239;SDS011;61452;40.054;4.110;2022-08-19T00:39:55;13.55;;;2.22;;
73239;SDS011;61452;40.054;4.110;2022-08-19T00:44:57;14.52;;;3.08;;
73239;SDS011;61452;40.054;4.110;2022-08-19T00:49:59;13.60;;;2.90;;
73239;SDS011;61452;40.054;4.110;2022-08-19T00:55:02;14.63;;;3.10;;
73239;SDS011;61452;40.054;4.110;2022-08-19T01:00:08;13.98;;;2.45;;
73239;SDS011;61452;40.054;4.110;2022-08-19T01:05:15;13.32;;;3.20;;
73239;SDS011;61452;40.054;4.110;2022-08-19T01:10:22;13.73;;;2.40;;
73239;SDS011;61452;40.054;4.110;2022-08-19T01:15:29;7.97;;;1.65;;
73239;SDS011;61452;40.054;4.110;2022-08-19T01:20:34;13.32;;;1.77;;
73239;SDS011;61452;40.054;4.110;2022-08-19T01:25:44;4.68;;;1.50;;
73239;SDS011;61452;40.054;4.110;2022-08-19T01:30:50;14.27;;;2.78;;
73239;SDS011;61452;40.054;4.110;2022-08-19T01:36:09;10.63;;;2.40;;
73239;SDS011;61452;40.054;4.110;2022-08-19T01:41:14;7.65;;;1.98;;
73239;SDS011;61452;40.054;4.110;2022-08-19T01:46:18;4.93;;;1.15;;
73239;SDS011;61452;40.054;4.110;2022-08-19T01:51:25;5.72;;;1.67;;
73239;SDS011;61452;40.054;4.110;2022-08-19T01:56:29;7.85;;;1.70;;
73239;SDS011;61452;40.054;4.110;2022-08-19T02:01:31;4.38;;;1.25;;
73239;SDS011;61452;40.054;4.110;2022-08-19T02:06:34;6.63;;;1.52;;
73239;SDS011;61452;40.054;4.110;2022-08-19T02:11:37;5.30;;;1.65;;
73239;SDS011;61452;40.054;4.110;2022-08-19T02:16:39;4.85;;;1.35;;
73239;SDS011;61452;40.054;4.110;2022-08-19T02:21:41;4.10;;;1.27;;
73239;SDS011;61452;40.054;4.110;2022-08-19T02:26:45;5.15;;;1.50;;
73239;SDS011;61452;40.054;4.110;2022-08-19T02:31:47;4.93;;;1.40;;
73239;SDS011;61452;40.054;4.110;2022-08-19T02:36:49;3.35;;;1.20;;
73239;SDS011;61452;40.054;4.110;2022-08-19T02:41:52;6.47;;;1.10;;
73239;SDS011;61452;40.054;4.110;2022-08-19T02:46:54;3.20;;;1.10;;
73239;SDS011;61452;40.054;4.110;2022-08-19T02:51:57;7.72;;;1.38;;
73239;SDS011;61452;40.054;4.110;2022-08-19T02:56:59;5.25;;;1.40;;
73239;SDS011;61452;40.054;4.110;2022-08-19T03:02:01;6.75;;;1.20;;
73239;SDS011;61452;40.054;4.110;2022-08-19T03:07:03;5.78;;;1.50;;
73239;SDS011;61452;40.054;4.110;2022-08-19T03:12:11;6.15;;;1.42;;
73239;SDS011;61452;40.054;4.110;2022-08-19T03:17:13;4.07;;;1.30;;
73239;SDS011;61452;40.054;4.110;2022-08-19T03:22:16;8.25;;;1.55;;
73239;SDS011;61452;40.054;4.110;2022-08-19T03:27:18;7.10;;;1.80;;
73239;SDS011;61452;40.054;4.110;2022-08-19T03:32:20;4.00;;;1.30;;
73239;SDS011;61452;40.054;4.110;2022-08-19T03:37:33;3.33;;;1.00;;
73239;SDS011;61452;40.054;4.110;2022-08-19T03:42:36;6.55;;;1.42;;
73239;SDS011;61452;40.054;4.110;2022-08-19T03:47:50;3.95;;;1.30;;
73239;SDS011;61452;40.054;4.110;2022-08-19T03:52:52;4.28;;;1.40;;
73239;SDS011;61452;40.054;4.110;2022-08-19T03:57:54;3.30;;;1.25;;
73239;SDS011;61452;40.054;4.110;2022-08-19T04:02:59;4.88;;;1.20;;
73239;SDS011;61452;40.054;4.110;2022-08-19T04:08:02;5.47;;;1.25;;
73239;SDS011;61452;40.054;4.110;2022-08-19T04:13:05;7.93;;;1.80;;
73239;SDS011;61452;40.054;4.110;2022-08-19T04:18:08;3.53;;;1.13;;
73239;SDS011;61452;40.054;4.110;2022-08-19T04:23:12;5.93;;;1.48;;
73239;SDS011;61452;40.054;4.110;2022-08-19T04:28:15;3.65;;;1.33;;
73239;SDS011;61452;40.054;4.110;2022-08-19T04:33:19;4.38;;;1.30;;
73239;SDS011;61452;40.054;4.110;2022-08-19T04:38:27;5.07;;;1.70;;
73239;SDS011;61452;40.054;4.110;2022-08-19T04:43:29;5.43;;;1.42;;
73239;SDS011;61452;40.054;4.110;2022-08-19T04:48:32;4.28;;;1.27;;
73239;SDS011;61452;40.054;4.110;2022-08-19T04:58:39;7.10;;;1.55;;
73239;SDS011;61452;40.054;4.110;2022-08-19T05:03:44;5.78;;;1.60;;
73239;SDS011;61452;40.054;4.110;2022-08-19T05:08:46;7.45;;;1.48;;
73239;SDS011;61452;40.054;4.110;2022-08-19T05:13:49;6.30;;;1.80;;
73239;SDS011;61452;40.054;4.110;2022-08-19T05:18:53;50.63;;;29.80;;
73239;SDS011;61452;40.054;4.110;2022-08-19T05:24:15;18.42;;;9.85;;
73239;SDS011;61452;40.054;4.110;2022-08-19T05:29:19;10.80;;;3.53;;
73239;SDS011;61452;40.054;4.110;2022-08-19T05:34:23;9.73;;;2.90;;
73239;SDS011;61452;40.054;4.110;2022-08-19T05:39:28;7.30;;;2.47;;
73239;SDS011;61452;40.054;4.110;2022-08-19T05:44:32;4.32;;;1.88;;
73239;SDS011;61452;40.054;4.110;2022-08-19T05:49:36;6.82;;;1.80;;
73239;SDS011;61452;40.054;4.110;2022-08-19T05:54:39;8.98;;;2.33;;
73239;SDS011;61452;40.054;4.110;2022-08-19T05:59:43;7.88;;;2.17;;
73239;SDS011;61452;40.054;4.110;2022-08-19T06:04:47;7.40;;;2.10;;
73239;SDS011;61452;40.054;4.110;2022-08-19T06:09:49;8.73;;;2.20;;
73239;SDS011;61452;40.054;4.110;2022-08-19T06:15:03;6.53;;;2.20;;
73239;SDS011;61452;40.054;4.110;2022-08-19T06:20:09;7.88;;;2.25;;
73239;SDS011;61452;40.054;4.110;2022-08-19T06:25:13;7.13;;;1.83;;
73239;SDS011;61452;40.054;4.110;2022-08-19T06:30:16;8.02;;;2.80;;
73239;SDS011;61452;40.054;4.110;2022-08-19T06:35:19;10.02;;;3.03;;
73239;SDS011;61452;40.054;4.110;2022-08-19T06:40:21;9.30;;;2.75;;
73239;SDS011;61452;40.054;4.110;2022-08-19T06:45:23;11.73;;;2.97;;
73239;SDS011;61452;40.054;4.110;2022-08-19T06:50:36;7.38;;;2.45;;
73239;SDS011;61452;40.054;4.110;2022-08-19T06:55:41;20.25;;;3.65;;
73239;SDS011;61452;40.054;4.110;2022-08-19T07:00:43;13.70;;;2.78;;
73239;SDS011;61452;40.054;4.110;2022-08-19T07:05:45;11.07;;;3.55;;
73239;SDS011;61452;40.054;4.110;2022-08-19T07:10:47;10.73;;;2.70;;
73239;SDS011;61452;40.054;4.110;2022-08-19T07:15:50;8.13;;;1.77;;
73239;SDS011;61452;40.054;4.110;2022-08-19T07:21:01;7.07;;;2.40;;
73239;SDS011;61452;40.054;4.110;2022-08-19T07:26:33;20.58;;;4.22;;
73239;SDS011;61452;40.054;4.110;2022-08-19T07:31:33;16.27;;;3.67;;
73239;SDS011;61452;40.054;4.110;2022-08-19T07:36:38;21.73;;;4.90;;
73239;SDS011;61452;40.054;4.110;2022-08-19T07:41:42;12.55;;;2.38;;
73239;SDS011;61452;40.054;4.110;2022-08-19T07:46:46;12.00;;;2.33;;
73239;SDS011;61452;40.054;4.110;2022-08-19T07:57:00;12.05;;;2.40;;
73239;SDS011;61452;40.054;4.110;2022-08-19T08:02:04;15.25;;;3.00;;
73239;SDS011;61452;40.054;4.110;2022-08-19T08:12:37;13.68;;;2.97;;
73239;SDS011;61452;40.054;4.110;2022-08-19T08:17:58;13.13;;;4.28;;
73239;SDS011;61452;40.054;4.110;2022-08-19T08:23:00;11.18;;;3.08;;
73239;SDS011;61452;40.054;4.110;2022-08-19T08:28:21;15.23;;;4.10;;
73239;SDS011;61452;40.054;4.110;2022-08-19T08:33:25;9.73;;;2.80;;
73239;SDS011;61452;40.054;4.110;2022-08-19T08:38:35;19.73;;;5.55;;
73239;SDS011;61452;40.054;4.110;2022-08-19T08:43:44;21.83;;;4.45;;
73239;SDS011;61452;40.054;4.110;2022-08-19T08:48:52;25.45;;;6.55;;
73239;SDS011;61452;40.054;4.110;2022-08-19T08:54:07;27.65;;;4.47;;
73239;SDS011;61452;40.054;4.110;2022-08-19T08:59:19;30.40;;;8.10;;
73239;SDS011;61452;40.054;4.110;2022-08-19T09:04:26;16.67;;;4.00;;
73239;SDS011;61452;40.054;4.110;2022-08-19T09:09:34;15.88;;;3.55;;
73239;SDS011;61452;40.054;4.110;2022-08-19T09:20:05;17.75;;;3.60;;
73239;SDS011;61452;40.054;4.110;2022-08-19T09:25:13;19.60;;;3.28;;
73239;SDS011;61452;40.054;4.110;2022-08-19T09:30:26;16.88;;;3.10;;
73239;SDS011;61452;40.054;4.110;2022-08-19T09:35:31;15.52;;;3.67;;
73239;SDS011;61452;40.054;4.110;2022-08-19T09:40:53;10.32;;;2.30;;
73239;SDS011;61452;40.054;4.110;2022-08-19T09:45:55;17.58;;;2.85;;
73239;SDS011;61452;40.054;4.110;2022-08-19T09:51:04;13.73;;;3.10;;
73239;SDS011;61452;40.054;4.110;2022-08-19T09:56:12;15.73;;;2.72;;
73239;SDS011;61452;40.054;4.110;2022-08-19T10:01:19;18.80;;;3.15;;
73239;SDS011;61452;40.054;4.110;2022-08-19T10:06:25;34.17;;;6.55;;
73239;SDS011;61452;40.054;4.110;2022-08-19T10:11:47;10.48;;;3.15;;
73239;SDS011;61452;40.054;4.110;2022-08-19T10:16:55;37.05;;;8.43;;
73239;SDS011;61452;40.054;4.110;2022-08-19T10:22:01;24.85;;;7.07;;
73239;SDS011;61452;40.054;4.110;2022-08-19T10:27:05;31.35;;;8.07;;
73239;SDS011;61452;40.054;4.110;2022-08-19T10:32:09;19.63;;;3.30;;
73239;SDS011;61452;40.054;4.110;2022-08-19T10:37:11;22.45;;;3.53;;
73239;SDS011;61452;40.054;4.110;2022-08-19T10:42:16;22.67;;;4.32;;
73239;SDS011;61452;40.054;4.110;2022-08-19T10:47:20;38.80;;;7.75;;
73239;SDS011;61452;40.054;4.110;2022-08-19T10:52:26;18.48;;;2.83;;
73239;SDS011;61452;40.054;4.110;2022-08-19T10:57:39;25.58;;;5.38;;
73239;SDS011;61452;40.054;4.110;2022-08-19T11:03:02;25.67;;;5.25;;
73239;SDS011;61452;40.054;4.110;2022-08-19T11:08:04;23.88;;;4.13;;
73239;SDS011;61452;40.054;4.110;2022-08-19T11:13:23;13.85;;;2.67;;
73239;SDS011;61452;40.054;4.110;2022-08-19T11:18:26;21.58;;;3.85;;
73239;SDS011;61452;40.054;4.110;2022-08-19T11:23:28;22.02;;;3.35;;
73239;SDS011;61452;40.054;4.110;2022-08-19T11:28:31;17.52;;;3.08;;
73239;SDS011;61452;40.054;4.110;2022-08-19T11:33:33;11.05;;;2.15;;
73239;SDS011;61452;40.054;4.110;2022-08-19T11:38:36;25.17;;;5.60;;
73239;SDS011;61452;40.054;4.110;2022-08-19T11:43:38;15.23;;;3.38;;
73239;SDS011;61452;40.054;4.110;2022-08-19T11:48:41;31.55;;;7.90;;
73239;SDS011;61452;40.054;4.110;2022-08-19T11:53:43;11.23;;;2.60;;
73239;SDS011;61452;40.054;4.110;2022-08-19T11:58:47;13.90;;;3.63;;
73239;SDS011;61452;40.054;4.110;2022-08-19T12:03:50;18.17;;;2.80;;
73239;SDS011;61452;40.054;4.110;2022-08-19T12:08:57;27.55;;;5.07;;
73239;SDS011;61452;40.054;4.110;2022-08-19T12:14:01;22.38;;;4.38;;
73239;SDS011;61452;40.054;4.110;2022-08-19T12:19:04;15.52;;;3.50;;
73239;SDS011;61452;40.054;4.110;2022-08-19T12:24:06;22.27;;;3.80;;
73239;SDS011;61452;40.054;4.110;2022-08-19T12:29:09;18.23;;;4.30;;
73239;SDS011;61452;40.054;4.110;2022-08-19T12:34:11;12.93;;;2.42;;
73239;SDS011;61452;40.054;4.110;2022-08-19T12:39:13;32.28;;;6.32;;
73239;SDS011;61452;40.054;4.110;2022-08-19T12:44:15;23.08;;;4.80;;
73239;SDS011;61452;40.054;4.110;2022-08-19T12:49:20;38.17;;;9.07;;
73239;SDS011;61452;40.054;4.110;2022-08-19T12:54:42;36.03;;;6.20;;
73239;SDS011;61452;40.054;4.110;2022-08-19T12:59:47;35.50;;;6.65;;
73239;SDS011;61452;40.054;4.110;2022-08-19T13:04:55;55.08;;;15.13;;
73239;SDS011;61452;40.054;4.110;2022-08-19T13:09:58;31.15;;;5.38;;
73239;SDS011;61452;40.054;4.110;2022-08-19T13:15:00;40.75;;;7.63;;
73239;SDS011;61452;40.054;4.110;2022-08-19T13:20:03;37.03;;;7.35;;
73239;SDS011;61452;40.054;4.110;2022-08-19T13:25:08;33.80;;;5.93;;
73239;SDS011;61452;40.054;4.110;2022-08-19T13:30:11;31.05;;;5.70;;
73239;SDS011;61452;40.054;4.110;2022-08-19T13:35:33;45.05;;;7.78;;
73239;SDS011;61452;40.054;4.110;2022-08-19T13:40:36;15.60;;;3.40;;
73239;SDS011;61452;40.054;4.110;2022-08-19T13:45:40;26.00;;;4.95;;
73239;SDS011;61452;40.054;4.110;2022-08-19T13:50:44;41.45;;;7.68;;
73239;SDS011;61452;40.054;4.110;2022-08-19T13:55:48;14.20;;;3.13;;
73239;SDS011;61452;40.054;4.110;2022-08-19T14:00:51;22.42;;;4.22;;
73239;SDS011;61452;40.054;4.110;2022-08-19T14:05:54;20.08;;;3.58;;
73239;SDS011;61452;40.054;4.110;2022-08-19T14:10:56;27.15;;;4.70;;
73239;SDS011;61452;40.054;4.110;2022-08-19T14:15:58;25.98;;;5.22;;
73239;SDS011;61452;40.054;4.110;2022-08-19T14:21:00;15.73;;;3.70;;
73239;SDS011;61452;40.054;4.110;2022-08-19T14:26:03;33.65;;;6.30;;
73239;SDS011;61452;40.054;4.110;2022-08-19T14:31:07;29.00;;;6.05;;
73239;SDS011;61452;40.054;4.110;2022-08-19T14:36:10;41.63;;;9.35;;
73239;SDS011;61452;40.054;4.110;2022-08-19T14:41:14;21.38;;;5.30;;
73239;SDS011;61452;40.054;4.110;2022-08-19T14:46:22;42.10;;;6.15;;
73239;SDS011;61452;40.054;4.110;2022-08-19T14:51:30;37.72;;;5.75;;
73239;SDS011;61452;40.054;4.110;2022-08-19T14:56:32;30.27;;;5.13;;
73239;SDS011;61452;40.054;4.110;2022-08-19T15:01:34;32.40;;;5.20;;
73239;SDS011;61452;40.054;4.110;2022-08-19T15:06:37;27.17;;;4.65;;
73239;SDS011;61452;40.054;4.110;2022-08-19T15:11:39;21.52;;;3.67;;
73239;SDS011;61452;40.054;4.110;2022-08-19T15:16:42;23.30;;;4.28;;
73239;SDS011;61452;40.054;4.110;2022-08-19T15:21:44;19.45;;;3.55;;
73239;SDS011;61452;40.054;4.110;2022-08-19T15:26:47;25.60;;;5.05;;
73239;SDS011;61452;40.054;4.110;2022-08-19T15:31:49;23.42;;;3.92;;
73239;SDS011;61452;40.054;4.110;2022-08-19T15:36:54;21.95;;;4.32;;
73239;SDS011;61452;40.054;4.110;2022-08-19T15:47:01;38.47;;;5.65;;
73239;SDS011;61452;40.054;4.110;2022-08-19T15:52:03;33.38;;;5.18;;
73239;SDS011;61452;40.054;4.110;2022-08-19T15:57:08;36.55;;;6.70;;
73239;SDS011;61452;40.054;4.110;2022-08-19T16:02:23;32.28;;;5.82;;
73239;SDS011;61452;40.054;4.110;2022-08-19T16:07:46;34.17;;;5.82;;
73239;SDS011;61452;40.054;4.110;2022-08-19T16:12:48;51.15;;;15.60;;
73239;SDS011;61452;40.054;4.110;2022-08-19T16:17:51;20.05;;;4.60;;
73239;SDS011;61452;40.054;4.110;2022-08-19T16:22:57;24.00;;;6.35;;
73239;SDS011;61452;40.054;4.110;2022-08-19T16:28:00;34.08;;;6.72;;
73239;SDS011;61452;40.054;4.110;2022-08-19T16:33:08;33.13;;;7.65;;
73239;SDS011;61452;40.054;4.110;2022-08-19T16:38:11;24.42;;;4.85;;
73239;SDS011;61452;40.054;4.110;2022-08-19T16:43:13;36.22;;;6.97;;
73239;SDS011;61452;40.054;4.110;2022-08-19T16:48:15;22.30;;;3.85;;
73239;SDS011;61452;40.054;4.110;2022-08-19T16:53:19;19.30;;;3.15;;
73239;SDS011;61452;40.054;4.110;2022-08-19T16:58:23;36.95;;;7.00;;
73239;SDS011;61452;40.054;4.110;2022-08-19T17:03:29;20.08;;;3.83;;
73239;SDS011;61452;40.054;4.110;2022-08-19T17:08:37;35.40;;;5.53;;
73239;SDS011;61452;40.054;4.110;2022-08-19T17:13:41;18.10;;;3.47;;
73239;SDS011;61452;40.054;4.110;2022-08-19T17:18:43;30.35;;;6.38;;
73239;SDS011;61452;40.054;4.110;2022-08-19T17:23:45;48.10;;;7.68;;
73239;SDS011;61452;40.054;4.110;2022-08-19T17:28:49;31.67;;;5.93;;
73239;SDS011;61452;40.054;4.110;2022-08-19T17:33:52;34.63;;;4.72;;
73239;SDS011;61452;40.054;4.110;2022-08-19T17:38:56;26.40;;;3.67;;
73239;SDS011;61452;40.054;4.110;2022-08-19T17:44:01;40.45;;;7.80;;
73239;SDS011;61452;40.054;4.110;2022-08-19T17:49:04;46.30;;;7.53;;
73239;SDS011;61452;40.054;4.110;2022-08-19T17:54:08;33.35;;;5.85;;
73239;SDS011;61452;40.054;4.110;2022-08-19T17:59:13;31.52;;;5.80;;
73239;SDS011;61452;40.054;4.110;2022-08-19T18:04:16;44.25;;;6.93;;
73239;SDS011;61452;40.054;4.110;2022-08-19T18:09:20;28.08;;;5.68;;
73239;SDS011;61452;40.054;4.110;2022-08-19T18:14:27;31.35;;;10.05;;
73239;SDS011;61452;40.054;4.110;2022-08-19T18:19:35;24.00;;;5.97;;
73239;SDS011;61452;40.054;4.110;2022-08-19T18:24:42;24.30;;;4.80;;
73239;SDS011;61452;40.054;4.110;2022-08-19T18:29:46;29.55;;;6.15;;
73239;SDS011;61452;40.054;4.110;2022-08-19T18:34:48;21.00;;;4.78;;
73239;SDS011;61452;40.054;4.110;2022-08-19T18:39:51;17.65;;;3.38;;
73239;SDS011;61452;40.054;4.110;2022-08-19T18:45:11;28.52;;;3.65;;
73239;SDS011;61452;40.054;4.110;2022-08-19T18:50:32;20.75;;;3.90;;
73239;SDS011;61452;40.054;4.110;2022-08-19T18:55:34;37.70;;;6.57;;
73239;SDS011;61452;40.054;4.110;2022-08-19T19:00:36;23.27;;;4.47;;
73239;SDS011;61452;40.054;4.110;2022-08-19T19:05:38;32.08;;;5.30;;
73239;SDS011;61452;40.054;4.110;2022-08-19T19:10:40;15.55;;;3.85;;
73239;SDS011;61452;40.054;4.110;2022-08-19T19:15:42;24.98;;;4.22;;
73239;SDS011;61452;40.054;4.110;2022-08-19T19:20:44;25.48;;;10.68;;
73239;SDS011;61452;40.054;4.110;2022-08-19T19:25:46;60.63;;;23.83;;
73239;SDS011;61452;40.054;4.110;2022-08-19T19:30:52;38.75;;;9.10;;
73239;SDS011;61452;40.054;4.110;2022-08-19T19:35:58;29.15;;;6.05;;
73239;SDS011;61452;40.054;4.110;2022-08-19T19:41:00;25.27;;;3.95;;
73239;SDS011;61452;40.054;4.110;2022-08-19T19:46:02;38.53;;;7.35;;
73239;SDS011;61452;40.054;4.110;2022-08-19T19:51:08;14.27;;;2.90;;
73239;SDS011;61452;40.054;4.110;2022-08-19T19:56:10;31.70;;;6.32;;
73239;SDS011;61452;40.054;4.110;2022-08-19T20:01:13;40.97;;;11.05;;
73239;SDS011;61452;40.054;4.110;2022-08-19T20:06:25;21.85;;;4.28;;
73239;SDS011;61452;40.054;4.110;2022-08-19T20:16:37;28.98;;;3.97;;
73239;SDS011;61452;40.054;4.110;2022-08-19T20:21:44;49.40;;;9.52;;
73239;SDS011;61452;40.054;4.110;2022-08-19T20:26:51;23.60;;;4.40;;
73239;SDS011;61452;40.054;4.110;2022-08-19T20:31:54;43.50;;;6.85;;
73239;SDS011;61452;40.054;4.110;2022-08-19T20:37:00;38.00;;;5.32;;
73239;SDS011;61452;40.054;4.110;2022-08-19T20:42:02;21.15;;;4.22;;
73239;SDS011;61452;40.054;4.110;2022-08-19T20:47:05;22.20;;;4.13;;
73239;SDS011;61452;40.054;4.110;2022-08-19T20:52:07;18.70;;;3.08;;
73239;SDS011;61452;40.054;4.110;2022-08-19T20:57:09;41.25;;;9.25;;
73239;SDS011;61452;40.054;4.110;2022-08-19T21:02:11;31.27;;;12.07;;
73239;SDS011;61452;40.054;4.110;2022-08-19T21:07:14;43.35;;;14.15;;
73239;SDS011;61452;40.054;4.110;2022-08-19T21:12:17;21.35;;;5.35;;
73239;SDS011;61452;40.054;4.110;2022-08-19T21:17:19;24.58;;;5.78;;
73239;SDS011;61452;40.054;4.110;2022-08-19T21:22:21;40.15;;;7.93;;
73239;SDS011;61452;40.054;4.110;2022-08-19T21:27:24;9.60;;;2.50;;
73239;SDS011;61452;40.054;4.110;2022-08-19T21:32:26;13.90;;;3.08;;
73239;SDS011;61452;40.054;4.110;2022-08-19T21:37:28;10.57;;;2.90;;
73239;SDS011;61452;40.054;4.110;2022-08-19T21:42:33;24.15;;;3.90;;
73239;SDS011;61452;40.054;4.110;2022-08-19T21:47:36;21.08;;;4.30;;
73239;SDS011;61452;40.054;4.110;2022-08-19T21:52:38;18.63;;;3.90;;
73239;SDS011;61452;40.054;4.110;2022-08-19T21:57:40;23.38;;;4.70;;
73239;SDS011;61452;40.054;4.110;2022-08-19T22:02:43;18.05;;;3.90;;
73239;SDS011;61452;40.054;4.110;2022-08-19T22:07:45;24.42;;;5.13;;
73239;SDS011;61452;40.054;4.110;2022-08-19T22:12:48;40.42;;;7.30;;
73239;SDS011;61452;40.054;4.110;2022-08-19T22:17:52;25.67;;;5.97;;
73239;SDS011;61452;40.054;4.110;2022-08-19T22:22:56;24.88;;;5.15;;
73239;SDS011;61452;40.054;4.110;2022-08-19T22:28:02;10.38;;;3.00;;
73239;SDS011;61452;40.054;4.110;2022-08-19T22:33:13;8.48;;;2.70;;
73239;SDS011;61452;40.054;4.110;2022-08-19T22:38:17;11.27;;;3.28;;
73239;SDS011;61452;40.054;4.110;2022-08-19T22:43:21;7.43;;;2.00;;
73239;SDS011;61452;40.054;4.110;2022-08-19T22:48:26;5.18;;;1.90;;
73239;SDS011;61452;40.054;4.110;2022-08-19T22:53:30;11.13;;;2.33;;
73239;SDS011;61452;40.054;4.110;2022-08-19T22:58:34;16.02;;;3.88;;
73239;SDS011;61452;40.054;4.110;2022-08-19T23:08:40;8.07;;;1.98;;
73239;SDS011;61452;40.054;4.110;2022-08-19T23:13:43;4.70;;;1.65;;
73239;SDS011;61452;40.054;4.110;2022-08-19T23:18:45;3.67;;;1.38;;
73239;SDS011;61452;40.054;4.110;2022-08-19T23:23:48;3.42;;;1.05;;
73239;SDS011;61452;40.054;4.110;2022-08-19T23:28:50;2.40;;;1.42;;
73239;SDS011;61452;40.054;4.110;2022-08-19T23:34:11;2.85;;;1.02;;
73239;SDS011;61452;40.054;4.110;2022-08-19T23:39:13;2.75;;;1.75;;
73239;SDS011;61452;40.054;4.110;2022-08-19T23:44:15;4.57;;;1.08;;
73239;SDS011;61452;40.054;4.110;2022-08-19T23:49:18;3.10;;;1.55;;
73239;SDS011;61452;40.054;4.110;2022-08-19T23:54:20;3.35;;;1.40;;
73239;SDS011;61452;40.054;4.110;2022-08-19T23:59:34;2.13;;;1.17;;
